Time;durP1;ratioP1;P1;durP2;ratioP2;P2;SDS_P1;SDS_P2;PMS_P1;PMS_P2;Temp;Humidity;BMP_temperature;BMP_pressure;BME280_temperature;BME280_humidity;BME280_pressure;Samples;Min_cycle;Max_cycle;Signal;HPM_P1;HPM_P2
2020/12/11 00:00:39;;;;;;;24.95;16.88;;;1.10;99.90;;;;;;5038069;28;20293;-86
2020/12/11 00:03:07;;;;;;;62.42;33.30;;;1.20;99.90;;;;;;5038632;28;20300;-87
2020/12/11 00:05:33;;;;;;;31.50;19.45;;;1.20;99.90;;;;;;5037793;28;20224;-87
2020/12/11 00:07:59;;;;;;;34.55;20.85;;;1.20;99.90;;;;;;5038614;28;20211;-88
2020/12/11 00:10:27;;;;;;;32.28;20.83;;;1.20;99.90;;;;;;5037112;28;20302;-87
2020/12/11 00:12:54;;;;;;;26.00;17.70;;;1.30;99.90;;;;;;5038052;28;20234;-87
2020/12/11 00:15:21;;;;;;;28.52;17.65;;;1.30;99.90;;;;;;5034206;28;20662;-88
2020/12/11 00:17:47;;;;;;;27.48;16.20;;;1.20;99.90;;;;;;5038419;28;20207;-87
2020/12/11 00:20:14;;;;;;;26.52;18.35;;;1.30;99.90;;;;;;5037653;28;20225;-87
2020/12/11 00:22:40;;;;;;;23.67;16.13;;;1.30;99.90;;;;;;5037578;28;20211;-87
2020/12/11 00:25:07;;;;;;;27.90;18.80;;;1.40;99.90;;;;;;5028617;28;20313;-87
2020/12/11 00:27:33;;;;;;;25.10;17.25;;;1.40;99.90;;;;;;5017472;28;20219;-88
2020/12/11 00:29:59;;;;;;;25.50;16.85;;;1.40;99.90;;;;;;5018173;28;20625;-87
2020/12/11 00:32:27;;;;;;;25.25;17.30;;;1.40;99.90;;;;;;5017089;28;20743;-87
2020/12/11 00:34:54;;;;;;;22.55;15.52;;;1.40;99.90;;;;;;5016807;28;20212;-86
2020/12/11 00:37:20;;;;;;;26.33;17.02;;;1.40;99.90;;;;;;5017170;28;20207;-90
2020/12/11 00:39:46;;;;;;;26.17;18.83;;;1.50;99.90;;;;;;5027572;28;20209;-88
2020/12/11 00:42:17;;;;;;;25.08;16.98;;;1.50;99.90;;;;;;5036693;28;20240;-88
2020/12/11 00:44:43;;;;;;;28.58;17.15;;;1.40;99.90;;;;;;5035940;28;20229;-88
2020/12/11 00:47:10;;;;;;;26.45;17.73;;;1.50;99.90;;;;;;5037396;28;20595;-87
2020/12/11 00:49:37;;;;;;;24.83;16.35;;;1.40;99.90;;;;;;5018881;28;20255;-87
2020/12/11 00:52:03;;;;;;;29.38;17.35;;;1.50;99.90;;;;;;5036848;28;20203;-87
2020/12/11 00:54:30;;;;;;;25.73;16.50;;;1.40;99.90;;;;;;5036894;28;20302;-88
2020/12/11 00:56:56;;;;;;;23.90;15.95;;;1.50;99.90;;;;;;5036552;28;20210;-87
2020/12/11 00:59:22;;;;;;;28.05;18.45;;;1.60;99.90;;;;;;5036671;28;20201;-87
2020/12/11 01:01:49;;;;;;;26.92;17.20;;;1.60;99.90;;;;;;5037053;28;20298;-88
2020/12/11 01:04:15;;;;;;;24.73;17.35;;;1.60;99.90;;;;;;5036442;28;20314;-87
2020/12/11 01:06:42;;;;;;;29.73;17.95;;;1.60;99.90;;;;;;5035954;28;20230;-87
2020/12/11 01:09:09;;;;;;;22.02;15.52;;;1.70;99.90;;;;;;5036823;28;20369;-87
2020/12/11 01:11:35;;;;;;;26.60;18.08;;;1.70;99.90;;;;;;5018145;28;20209;-86
2020/12/11 01:14:02;;;;;;;25.23;16.58;;;1.70;99.90;;;;;;5020205;28;20536;-85
2020/12/11 01:16:28;;;;;;;24.85;16.08;;;1.70;99.90;;;;;;5031509;28;20551;-88
2020/12/11 01:18:56;;;;;;;22.88;15.57;;;1.80;99.90;;;;;;5036613;28;20202;-87
2020/12/11 01:21:22;;;;;;;25.02;17.02;;;1.80;99.90;;;;;;5036025;28;20206;-89
2020/12/11 01:23:50;;;;;;;23.70;16.52;;;1.80;99.90;;;;;;5036982;28;20299;-87
2020/12/11 01:26:16;;;;;;;25.30;17.00;;;1.80;99.90;;;;;;5036025;28;20256;-87
2020/12/11 01:28:42;;;;;;;29.02;16.77;;;1.80;99.90;;;;;;5036380;28;20537;-88
2020/12/11 01:31:09;;;;;;;27.02;17.10;;;1.80;99.90;;;;;;5048419;28;20717;-88
2020/12/11 01:33:35;;;;;;;28.42;18.30;;;1.80;99.90;;;;;;5036307;28;20297;-87
2020/12/11 01:36:01;;;;;;;22.67;16.23;;;1.80;99.90;;;;;;5036646;28;20207;-87
2020/12/11 01:38:27;;;;;;;26.02;17.20;;;1.90;99.90;;;;;;5036266;28;20521;-88
2020/12/11 01:40:55;;;;;;;26.08;16.13;;;1.90;99.90;;;;;;5035997;28;20206;-88
2020/12/11 01:43:21;;;;;;;24.52;15.77;;;1.90;99.90;;;;;;5035760;28;20237;-91
2020/12/11 01:45:48;;;;;;;28.00;15.90;;;1.90;99.90;;;;;;5033751;28;20243;-87
2020/12/11 01:48:15;;;;;;;25.35;16.95;;;2.00;99.90;;;;;;5016150;28;20212;-88
2020/12/11 01:50:41;;;;;;;23.50;16.88;;;2.00;99.90;;;;;;5032576;28;20201;-88
2020/12/11 01:53:09;;;;;;;23.88;16.90;;;2.00;99.90;;;;;;5035773;28;20302;-88
2020/12/11 01:55:41;;;;;;;25.27;16.60;;;2.10;99.90;;;;;;5035116;28;20819;-88
2020/12/11 01:58:19;;;;;;;21.60;14.57;;;2.10;99.90;;;;;;5036097;28;20520;-88
2020/12/11 02:00:48;;;;;;;23.63;16.58;;;2.10;99.90;;;;;;5035113;28;20222;-87
2020/12/11 02:03:15;;;;;;;24.02;17.48;;;2.10;99.90;;;;;;5035892;28;20206;-87
2020/12/11 02:05:42;;;;;;;24.23;14.90;;;2.00;99.90;;;;;;5035170;28;20236;-87
2020/12/11 02:08:08;;;;;;;23.95;16.27;;;2.10;99.90;;;;;;5035251;28;20302;-88
2020/12/11 02:10:34;;;;;;;23.55;16.65;;;2.10;99.90;;;;;;5025118;28;20302;-88
2020/12/11 02:13:07;;;;;;;23.88;16.63;;;2.10;99.90;;;;;;5022069;28;20219;-88
2020/12/11 02:15:35;;;;;;;25.35;17.45;;;2.10;99.90;;;;;;5035353;28;20530;-88
2020/12/11 02:18:02;;;;;;;23.75;16.33;;;2.10;99.90;;;;;;5034625;28;20323;-87
2020/12/11 02:20:29;;;;;;;23.77;16.90;;;2.10;99.90;;;;;;5034785;28;20221;-89
2020/12/11 02:22:56;;;;;;;26.52;19.63;;;2.20;99.90;;;;;;5035247;28;20457;-87
2020/12/11 02:25:23;;;;;;;25.13;17.52;;;2.20;99.90;;;;;;5034522;28;20226;-93
2020/12/11 02:27:50;;;;;;;26.02;18.55;;;2.20;99.90;;;;;;5035346;28;20293;-88
2020/12/11 02:30:17;;;;;;;23.15;17.45;;;2.10;99.90;;;;;;5035283;28;20218;-85
2020/12/11 02:32:43;;;;;;;28.75;19.05;;;2.10;99.90;;;;;;5034620;28;20357;-87
2020/12/11 02:35:11;;;;;;;25.45;17.02;;;2.10;99.90;;;;;;5034603;28;20206;-88
2020/12/11 02:37:37;;;;;;;25.65;18.02;;;2.10;99.90;;;;;;5026493;28;20205;-87
2020/12/11 02:40:06;;;;;;;24.55;17.25;;;2.10;99.90;;;;;;5026463;28;20249;-87
2020/12/11 02:42:32;;;;;;;27.70;18.30;;;2.20;99.90;;;;;;5034186;28;20332;-88
2020/12/11 02:44:59;;;;;;;25.33;18.33;;;2.20;99.90;;;;;;5019735;28;20695;-87
2020/12/11 02:47:25;;;;;;;30.83;18.70;;;2.20;99.90;;;;;;5014450;28;20298;-92
2020/12/11 02:49:52;;;;;;;25.65;15.50;;;2.20;99.90;;;;;;5014196;28;20685;-89
2020/12/11 02:52:18;;;;;;;24.55;16.77;;;2.10;99.90;;;;;;5031423;28;20308;-87
2020/12/11 02:54:46;;;;;;;29.05;19.42;;;2.10;99.90;;;;;;5014574;28;20267;-87
2020/12/11 02:57:13;;;;;;;28.48;19.40;;;2.10;99.90;;;;;;5031497;28;20711;-87
2020/12/11 02:59:39;;;;;;;25.70;17.83;;;2.00;99.90;;;;;;5033046;28;20749;-87
2020/12/11 03:02:05;;;;;;;27.30;18.63;;;2.00;99.90;;;;;;5034002;28;20216;-87
2020/12/11 03:04:32;;;;;;;24.20;17.55;;;2.00;99.90;;;;;;5034748;28;20205;-88
2020/12/11 03:06:58;;;;;;;28.67;20.10;;;1.90;99.90;;;;;;5034585;28;20698;-87
2020/12/11 03:09:24;;;;;;;25.58;17.17;;;1.90;99.90;;;;;;5034088;28;20456;-89
2020/12/11 03:11:51;;;;;;;28.48;19.58;;;1.90;99.90;;;;;;5015930;28;20298;-86
2020/12/11 03:14:18;;;;;;;30.55;19.42;;;1.80;99.90;;;;;;5015626;28;20217;-87
2020/12/11 03:16:44;;;;;;;21.30;16.85;;;1.70;99.90;;;;;;5014058;28;20210;-87
2020/12/11 03:19:11;;;;;;;27.88;19.02;;;1.80;99.90;;;;;;5014687;28;20203;-87
2020/12/11 03:21:37;;;;;;;23.00;16.27;;;1.70;99.90;;;;;;5014572;28;20211;-88
2020/12/11 03:24:03;;;;;;;24.98;17.67;;;1.70;99.90;;;;;;5015222;28;20265;-86
2020/12/11 03:26:30;;;;;;;24.25;16.88;;;1.70;99.90;;;;;;5013493;28;20673;-86
2020/12/11 03:28:56;;;;;;;28.67;17.60;;;1.60;99.90;;;;;;5028279;28;20209;-86
2020/12/11 03:31:23;;;;;;;25.08;17.17;;;1.60;99.90;;;;;;5034671;28;20568;-87
2020/12/11 03:33:50;;;;;;;26.15;17.90;;;1.60;99.90;;;;;;5036885;28;20202;-86
2020/12/11 03:36:19;;;;;;;26.80;17.00;;;1.60;99.90;;;;;;5015141;28;20313;-86
2020/12/11 03:38:47;;;;;;;24.70;17.08;;;1.50;99.90;;;;;;5013542;28;20217;-86
2020/12/11 03:41:15;;;;;;;23.52;17.25;;;1.50;99.90;;;;;;5025716;28;20205;-86
2020/12/11 03:43:41;;;;;;;25.52;18.05;;;1.40;99.90;;;;;;5033027;28;20204;-87
2020/12/11 03:46:08;;;;;;;21.45;16.67;;;1.40;99.90;;;;;;5020207;28;20251;-86
2020/12/11 03:48:35;;;;;;;25.67;16.88;;;1.40;99.90;;;;;;5013460;28;20210;-86
2020/12/11 03:51:01;;;;;;;25.92;17.65;;;1.40;99.90;;;;;;5014400;28;20216;-86
2020/12/11 03:53:28;;;;;;;25.65;16.15;;;1.40;99.90;;;;;;5013825;28;20209;-86
2020/12/11 03:55:57;;;;;;;21.52;15.73;;;1.40;99.90;;;;;;5023773;28;20219;-85
2020/12/11 03:58:23;;;;;;;26.88;17.30;;;1.40;99.90;;;;;;5034127;28;20316;-85
2020/12/11 04:00:49;;;;;;;21.40;14.73;;;1.40;99.90;;;;;;5033321;28;20208;-85
2020/12/11 04:03:16;;;;;;;23.55;16.02;;;1.40;99.90;;;;;;5033520;28;20216;-86
2020/12/11 04:05:43;;;;;;;19.85;14.80;;;1.40;99.90;;;;;;5033129;28;20235;-87
2020/12/11 04:08:09;;;;;;;22.73;15.25;;;1.40;99.90;;;;;;5033271;28;20209;-85
2020/12/11 04:10:36;;;;;;;23.10;15.30;;;1.50;99.90;;;;;;5033234;28;20205;-86
2020/12/11 04:13:02;;;;;;;21.00;15.35;;;1.50;99.90;;;;;;5033247;28;20206;-86
2020/12/11 04:15:28;;;;;;;19.77;14.52;;;1.60;99.90;;;;;;5034107;28;20202;-90
2020/12/11 04:17:55;;;;;;;22.73;15.25;;;1.60;99.90;;;;;;5033053;28;20211;-87
2020/12/11 04:20:21;;;;;;;23.10;15.85;;;1.70;99.90;;;;;;5033528;28;20266;-85
2020/12/11 04:22:48;;;;;;;24.88;15.45;;;1.70;99.90;;;;;;5033501;28;20237;-85
2020/12/11 04:25:15;;;;;;;22.30;14.50;;;1.70;99.90;;;;;;5034244;28;20231;-86
2020/12/11 04:27:41;;;;;;;18.95;14.05;;;1.80;99.90;;;;;;5034412;28;20217;-85
2020/12/11 04:30:09;;;;;;;18.60;12.50;;;1.80;99.90;;;;;;5026020;28;20198;-86
2020/12/11 04:32:35;;;;;;;17.75;13.35;;;1.90;99.90;;;;;;5013464;28;20455;-87
2020/12/11 04:35:01;;;;;;;17.98;13.55;;;2.00;99.90;;;;;;5026225;28;20288;-85
2020/12/11 04:37:28;;;;;;;18.67;14.05;;;2.00;99.90;;;;;;5033697;28;20305;-88
2020/12/11 04:39:55;;;;;;;17.40;12.38;;;2.00;99.90;;;;;;5033148;28;20205;-86
2020/12/11 04:42:22;;;;;;;20.10;13.27;;;2.00;99.90;;;;;;5037449;28;20257;-86
2020/12/11 04:44:49;;;;;;;17.27;13.02;;;2.10;99.90;;;;;;5022973;28;20786;-86
2020/12/11 04:47:17;;;;;;;16.05;11.73;;;2.10;99.90;;;;;;5017855;28;20207;-86
2020/12/11 04:49:45;;;;;;;20.85;13.80;;;2.20;99.90;;;;;;5035654;28;20301;-86
2020/12/11 04:52:17;;;;;;;17.48;11.80;;;2.20;99.90;;;;;;5037250;28;20288;-86
2020/12/11 04:54:49;;;;;;;17.23;12.90;;;2.20;99.90;;;;;;5034799;28;20614;-86
2020/12/11 04:57:22;;;;;;;18.10;13.10;;;2.30;99.90;;;;;;5036348;28;20478;-86
2020/12/11 04:59:51;;;;;;;17.67;14.93;;;2.30;99.90;;;;;;5035051;28;20657;-87
2020/12/11 05:02:18;;;;;;;18.67;13.47;;;2.30;99.90;;;;;;5036486;28;20534;-87
2020/12/11 05:04:44;;;;;;;15.57;11.00;;;2.40;99.90;;;;;;5036137;28;20537;-86
2020/12/11 05:07:10;;;;;;;16.92;11.82;;;2.40;99.90;;;;;;5036189;28;20227;-86
2020/12/11 05:09:37;;;;;;;14.95;12.48;;;2.40;99.90;;;;;;5035733;28;20220;-86
2020/12/11 05:12:14;;;;;;;16.00;11.93;;;2.40;99.90;;;;;;5036965;28;20210;-85
2020/12/11 05:14:41;;;;;;;15.98;12.40;;;2.30;99.90;;;;;;5036509;28;20199;-86
2020/12/11 05:17:08;;;;;;;15.52;11.52;;;2.40;99.90;;;;;;5036593;28;20240;-86
2020/12/11 05:19:51;;;;;;;15.10;11.68;;;2.40;99.90;;;;;;5036288;28;20217;-86
2020/12/11 05:22:18;;;;;;;19.00;12.60;;;2.40;99.90;;;;;;5036491;28;20291;-86
2020/12/11 05:24:46;;;;;;;17.45;12.25;;;2.40;99.90;;;;;;5036128;28;20218;-86
2020/12/11 05:27:31;;;;;;;15.75;12.00;;;2.40;99.90;;;;;;5036384;28;20320;-86
2020/12/11 05:29:59;;;;;;;17.73;12.57;;;2.40;99.90;;;;;;5036607;28;20209;-85
2020/12/11 05:32:36;;;;;;;16.40;10.90;;;2.30;99.90;;;;;;5036402;28;20858;-85
2020/12/11 05:35:03;;;;;;;17.30;12.15;;;2.20;99.90;;;;;;5036309;28;20292;-86
2020/12/11 05:37:44;;;;;;;13.98;10.07;;;2.20;99.90;;;;;;5036148;28;20288;-87
2020/12/11 05:40:16;;;;;;;17.92;12.65;;;2.20;99.90;;;;;;5035921;28;20197;-86
2020/12/11 05:42:42;;;;;;;16.33;12.23;;;2.10;99.90;;;;;;5031356;28;20221;-86
2020/12/11 05:45:17;;;;;;;17.20;11.63;;;2.10;99.90;;;;;;5016453;28;20210;-86
2020/12/11 05:47:43;;;;;;;15.15;12.80;;;2.00;99.90;;;;;;5023909;28;20480;-84
2020/12/11 05:50:10;;;;;;;18.50;13.07;;;2.00;99.90;;;;;;5036778;28;20206;-85
2020/12/11 05:52:37;;;;;;;14.98;11.60;;;1.90;99.90;;;;;;5036418;28;20220;-85
2020/12/11 05:55:03;;;;;;;15.13;12.18;;;1.90;99.90;;;;;;5036977;28;20209;-85
2020/12/11 05:57:31;;;;;;;16.70;12.07;;;1.80;99.90;;;;;;5028888;28;20528;-85
2020/12/11 05:59:59;;;;;;;16.67;11.82;;;1.80;99.90;;;;;;5020481;28;20216;-85
2020/12/11 06:02:29;;;;;;;14.80;11.60;;;1.80;99.90;;;;;;5030608;28;20210;-89
2020/12/11 06:04:57;;;;;;;14.13;10.82;;;1.80;99.90;;;;;;5030708;28;20220;-85
2020/12/11 06:07:25;;;;;;;16.50;11.60;;;1.70;99.90;;;;;;5035301;28;20316;-84
2020/12/11 06:09:51;;;;;;;16.55;12.50;;;1.70;99.90;;;;;;5033752;28;20205;-85
2020/12/11 06:12:28;;;;;;;14.93;11.35;;;1.70;99.90;;;;;;5032069;28;20529;-85
2020/12/11 06:15:02;;;;;;;17.27;12.00;;;1.70;99.90;;;;;;5035584;28;20252;-85
2020/12/11 06:17:37;;;;;;;17.05;13.15;;;1.70;99.90;;;;;;5036011;28;20288;-85
2020/12/11 06:20:07;;;;;;;16.30;12.15;;;1.70;99.90;;;;;;5033453;28;20273;-86
2020/12/11 06:22:36;;;;;;;17.73;13.48;;;1.80;99.90;;;;;;5037630;28;20203;-87
2020/12/11 06:25:25;;;;;;;15.52;11.85;;;1.80;99.90;;;;;;5054748;28;20707;-84
2020/12/11 06:27:52;;;;;;;17.00;13.13;;;1.80;99.90;;;;;;5045294;28;20658;-84
2020/12/11 06:30:29;;;;;;;18.58;12.45;;;1.80;99.90;;;;;;5035407;28;20209;-85
2020/12/11 06:32:57;;;;;;;17.38;12.23;;;1.80;99.90;;;;;;5035006;28;20226;-86
2020/12/11 06:35:24;;;;;;;19.05;13.15;;;1.90;99.90;;;;;;5034826;28;20666;-86
2020/12/11 06:37:50;;;;;;;16.98;13.55;;;1.90;99.90;;;;;;5034852;28;20230;-85
2020/12/11 06:40:17;;;;;;;16.17;11.55;;;1.90;99.90;;;;;;5035315;28;20226;-85
2020/12/11 06:42:45;;;;;;;21.25;14.30;;;2.00;99.90;;;;;;5034943;28;20230;-86
2020/12/11 06:45:20;;;;;;;19.17;14.82;;;2.00;99.90;;;;;;5034471;28;20297;-85
2020/12/11 06:47:51;;;;;;;17.83;13.85;;;2.10;99.90;;;;;;5032371;28;20672;-86
2020/12/11 06:50:21;;;;;;;21.02;13.18;;;2.00;99.90;;;;;;5034855;28;20297;-83
2020/12/11 06:52:48;;;;;;;19.45;13.18;;;2.00;99.90;;;;;;5035285;28;20284;-83
2020/12/11 06:55:14;;;;;;;17.30;12.40;;;2.10;99.90;;;;;;5034670;28;20285;-83
2020/12/11 06:57:45;;;;;;;16.30;12.57;;;2.10;99.90;;;;;;5034431;28;20221;-83
2020/12/11 07:00:51;;;;;;;15.45;11.95;;;2.10;99.90;;;;;;5034983;28;20251;-83
2020/12/11 07:03:26;;;;;;;15.30;11.77;;;2.10;99.90;;;;;;5033816;28;20663;-83
2020/12/11 07:06:04;;;;;;;14.93;11.60;;;2.20;99.90;;;;;;5033009;28;20228;-83
2020/12/11 07:08:31;;;;;;;17.50;12.55;;;2.10;99.90;;;;;;5034030;28;20300;-84
2020/12/11 07:11:07;;;;;;;14.85;11.90;;;2.10;99.90;;;;;;5033430;28;20641;-82
2020/12/11 07:13:38;;;;;;;15.70;11.40;;;2.10;99.90;;;;;;5034488;28;20232;-83
2020/12/11 07:16:05;;;;;;;16.35;11.15;;;2.10;99.90;;;;;;5033204;28;20201;-82
2020/12/11 07:18:32;;;;;;;16.15;11.95;;;2.10;99.90;;;;;;5034308;28;20206;-83
2020/12/11 07:21:02;;;;;;;14.77;10.68;;;2.10;99.90;;;;;;5028378;28;20214;-83
2020/12/11 07:23:33;;;;;;;16.77;11.53;;;2.10;99.90;;;;;;5036595;28;20268;-82
2020/12/11 07:26:00;;;;;;;15.90;12.30;;;2.10;99.90;;;;;;5035041;28;20481;-82
2020/12/11 07:28:39;;;;;;;15.07;11.07;;;2.10;99.90;;;;;;5036156;28;20380;-83
2020/12/11 07:31:12;;;;;;;15.98;11.20;;;2.10;99.90;;;;;;5035621;28;20229;-82
2020/12/11 07:33:41;;;;;;;13.70;10.88;;;2.00;99.90;;;;;;5016956;28;20199;-83
2020/12/11 07:36:11;;;;;;;20.17;12.75;;;2.00;99.90;;;;;;5029057;28;20252;-83
2020/12/11 07:38:38;;;;;;;15.30;11.05;;;2.10;99.90;;;;;;5036098;28;20302;-84
2020/12/11 07:41:06;;;;;;;13.90;10.38;;;2.00;99.90;;;;;;5034942;28;20421;-83
2020/12/11 07:43:32;;;;;;;15.25;11.35;;;2.10;99.90;;;;;;5034382;28;20248;-84
2020/12/11 07:45:59;;;;;;;15.77;11.60;;;2.00;99.90;;;;;;5032570;28;20325;-83
2020/12/11 07:48:25;;;;;;;15.27;11.32;;;2.00;99.90;;;;;;5034384;28;20289;-84
2020/12/11 07:50:52;;;;;;;15.68;10.27;;;2.00;99.90;;;;;;5034802;28;20195;-85
2020/12/11 07:53:20;;;;;;;14.38;11.40;;;2.00;99.90;;;;;;5035295;28;20617;-84
2020/12/11 07:55:48;;;;;;;15.02;11.63;;;2.00;99.90;;;;;;5034604;28;20218;-84
2020/12/11 07:58:14;;;;;;;13.98;10.55;;;2.10;99.90;;;;;;5034186;28;20320;-83
2020/12/11 08:00:41;;;;;;;16.70;11.35;;;2.20;99.90;;;;;;5034763;28;20302;-84
2020/12/11 08:03:08;;;;;;;14.82;10.40;;;2.20;99.90;;;;;;5034382;28;20226;-83
2020/12/11 08:05:36;;;;;;;14.90;11.23;;;2.20;99.90;;;;;;5034025;28;20209;-83
2020/12/11 08:08:04;;;;;;;13.30;11.00;;;2.30;99.90;;;;;;5034972;28;20288;-83
2020/12/11 08:10:42;;;;;;;12.07;9.45;;;2.30;99.90;;;;;;5034326;28;20292;-83
2020/12/11 08:13:14;;;;;;;14.47;11.10;;;2.30;99.90;;;;;;5033749;28;20216;-82
2020/12/11 08:15:41;;;;;;;14.93;10.90;;;2.40;99.90;;;;;;5031500;28;20502;-82
2020/12/11 08:18:20;;;;;;;15.13;12.03;;;2.60;99.90;;;;;;5037469;28;20465;-82
2020/12/11 08:20:55;;;;;;;14.40;10.95;;;2.50;99.90;;;;;;5037526;28;20786;-82
2020/12/11 08:23:42;;;;;;;14.40;11.23;;;2.60;99.90;;;;;;5017871;28;20248;-83
2020/12/11 08:26:14;;;;;;;15.80;10.57;;;2.70;99.90;;;;;;5021439;28;20492;-85
2020/12/11 08:28:42;;;;;;;15.63;10.50;;;2.80;99.90;;;;;;5038140;28;20206;-83
2020/12/11 08:31:31;;;;;;;13.30;9.83;;;3.00;99.90;;;;;;5038182;28;20197;-83
2020/12/11 08:34:05;;;;;;;14.90;11.10;;;3.30;99.90;;;;;;5038576;28;20792;-84
2020/12/11 08:36:35;;;;;;;13.90;10.10;;;3.60;99.90;;;;;;5038848;28;20264;-84
2020/12/11 08:39:20;;;;;;;13.03;10.73;;;3.90;99.90;;;;;;5038014;28;20790;-84
2020/12/11 08:42:01;;;;;;;16.30;11.83;;;4.00;99.90;;;;;;5035852;28;20487;-84
2020/12/11 08:44:42;;;;;;;16.63;11.27;;;4.10;99.90;;;;;;5036438;28;20451;-85
2020/12/11 08:50:31;;;;;;;14.00;10.77;;;4.20;99.90;;;;;;5002077;28;20954;-83
2020/12/11 08:53:03;;;;;;;14.00;11.27;;;4.10;99.90;;;;;;5037907;28;20477;-85
2020/12/11 08:55:48;;;;;;;15.40;10.73;;;4.10;99.90;;;;;;5038223;28;20524;-85
2020/12/11 08:58:14;;;;;;;12.70;9.60;;;4.10;99.90;;;;;;5045243;28;20516;-84
2020/12/11 09:00:41;;;;;;;12.40;9.10;;;4.20;99.90;;;;;;5056569;28;20452;-86
2020/12/11 09:03:08;;;;;;;12.80;9.07;;;4.20;99.90;;;;;;5057031;28;20450;-84
2020/12/11 09:05:34;;;;;;;11.67;9.10;;;4.30;99.90;;;;;;5038681;28;20536;-84
2020/12/11 09:08:01;;;;;;;13.40;9.53;;;4.30;99.90;;;;;;5036318;28;20456;-85
2020/12/11 09:10:27;;;;;;;13.07;9.33;;;4.30;99.90;;;;;;5036384;28;20536;-85
2020/12/11 09:12:54;;;;;;;12.00;9.77;;;4.40;99.90;;;;;;5036800;28;20532;-84
2020/12/11 09:15:21;;;;;;;12.40;9.30;;;4.50;99.90;;;;;;5037077;28;20446;-84
2020/12/11 09:17:49;;;;;;;11.03;9.03;;;4.60;99.90;;;;;;5036599;28;20454;-85
2020/12/11 09:20:15;;;;;;;11.37;7.90;;;4.60;99.90;;;;;;5036642;28;20486;-85
2020/12/11 09:22:42;;;;;;;11.40;9.50;;;4.70;99.90;;;;;;5037062;28;20446;-84
2020/12/11 09:25:09;;;;;;;12.07;8.63;;;4.60;99.90;;;;;;5036471;28;20500;-85
2020/12/11 09:27:38;;;;;;;12.53;8.90;;;4.70;99.90;;;;;;5044191;28;20510;-86
2020/12/11 09:33:04;;;;;;;9.87;8.30;;;4.60;99.90;;;;;;5052671;28;20436;-84
2020/12/11 09:35:30;;;;;;;9.93;8.23;;;4.60;99.90;;;;;;5068911;28;20464;-83
2020/12/11 09:37:57;;;;;;;10.10;8.30;;;4.50;99.90;;;;;;5058190;28;20837;-84
2020/12/11 09:40:30;;;;;;;12.33;9.13;;;4.50;99.90;;;;;;5058401;28;20535;-84
2020/12/11 09:43:27;;;;;;;9.60;7.70;;;4.50;99.90;;;;;;5052539;28;20486;-85
2020/12/11 09:45:56;;;;;;;9.50;7.47;;;4.60;99.90;;;;;;5037115;28;20948;-84
2020/12/11 09:48:36;;;;;;;11.20;8.37;;;4.60;99.90;;;;;;5037454;28;20453;-84
2020/12/11 09:51:19;;;;;;;11.83;8.30;;;4.70;99.90;;;;;;5037483;28;20913;-84
2020/12/11 09:56:30;;;;;;;11.00;8.13;;;4.70;99.90;;;;;;5036387;28;20936;-84
2020/12/11 09:58:59;;;;;;;10.23;7.53;;;4.80;99.90;;;;;;5037629;28;20445;-84
2020/12/11 10:01:29;;;;;;;11.50;8.43;;;4.80;99.90;;;;;;5036894;28;20446;-85
2020/12/11 10:03:56;;;;;;;8.50;6.70;;;4.90;99.90;;;;;;5036761;28;20497;-84
2020/12/11 10:06:24;;;;;;;12.93;7.70;;;4.90;99.90;;;;;;5037783;28;20579;-84
2020/12/11 10:08:50;;;;;;;10.30;8.00;;;5.00;99.90;;;;;;5034607;28;20536;-84
2020/12/11 10:11:19;;;;;;;12.23;7.90;;;5.10;99.90;;;;;;5035828;28;20448;-83
2020/12/11 10:13:46;;;;;;;9.33;7.60;;;5.10;99.90;;;;;;5035245;28;20455;-84
2020/12/11 10:16:15;;;;;;;9.50;7.80;;;5.20;99.90;;;;;;5035502;28;20531;-83
2020/12/11 10:18:42;;;;;;;9.20;7.37;;;5.30;99.90;;;;;;5034922;28;20424;-84
2020/12/11 10:21:10;;;;;;;9.53;6.67;;;5.40;99.90;;;;;;5034692;28;20527;-84
2020/12/11 10:23:37;;;;;;;8.17;7.00;;;5.40;99.90;;;;;;5023308;28;20459;-84
2020/12/11 10:26:04;;;;;;;10.20;7.97;;;5.60;99.90;;;;;;5021438;28;20491;-88
2020/12/11 10:28:31;;;;;;;13.40;8.20;;;5.80;99.90;;;;;;5034748;28;20461;-88
2020/12/11 10:30:57;;;;;;;8.83;7.43;;;6.00;99.90;;;;;;5015422;28;20837;-85
2020/12/11 10:33:25;;;;;;;10.73;7.57;;;6.00;99.90;;;;;;5031620;28;20491;-85
2020/12/11 10:35:51;;;;;;;9.50;8.10;;;6.00;99.90;;;;;;5035529;28;20450;-85
2020/12/11 10:38:19;;;;;;;10.80;7.30;;;6.30;99.90;;;;;;5034517;28;20466;-85
2020/12/11 10:40:45;;;;;;;10.93;7.80;;;6.40;99.90;;;;;;5035158;28;20452;-86
2020/12/11 10:43:12;;;;;;;8.70;7.80;;;6.50;99.90;;;;;;5028897;28;20490;-84
2020/12/11 10:45:38;;;;;;;8.33;6.70;;;6.60;99.90;;;;;;5035316;28;20455;-84
2020/12/11 10:48:04;;;;;;;10.93;7.77;;;6.80;99.90;;;;;;5034872;28;20538;-83
2020/12/11 10:50:31;;;;;;;10.40;6.67;;;6.70;99.90;;;;;;5035380;28;20511;-83
2020/12/11 10:52:58;;;;;;;11.10;7.37;;;6.80;99.90;;;;;;5035852;28;20449;-84
2020/12/11 10:55:26;;;;;;;10.13;6.93;;;6.80;99.90;;;;;;5034721;28;20539;-84
2020/12/11 10:57:52;;;;;;;9.43;7.10;;;6.80;99.90;;;;;;5034540;28;20932;-85
2020/12/11 11:00:19;;;;;;;8.30;7.13;;;7.00;99.90;;;;;;5035283;28;20531;-83
2020/12/11 11:02:45;;;;;;;10.10;7.83;;;7.00;99.90;;;;;;5033345;28;20446;-85
2020/12/11 11:05:49;;;;;;;8.53;6.63;;;7.20;99.90;;;;;;5035185;28;20964;-84
2020/12/11 11:08:18;;;;;;;8.20;6.47;;;7.40;99.90;;;;;;5015623;28;20461;-84
2020/12/11 11:10:49;;;;;;;8.17;7.00;;;7.50;99.90;;;;;;5015365;28;20453;-91
2020/12/11 11:13:22;;;;;;;9.13;6.53;;;7.30;99.90;;;;;;5015205;28;20466;-84
2020/12/11 11:15:50;;;;;;;8.33;6.60;;;7.40;99.90;;;;;;5014427;28;20528;-84
2020/12/11 11:18:35;;;;;;;10.00;7.17;;;7.10;99.90;;;;;;5026206;28;20526;-84
2020/12/11 11:26:56;;;;;;;7.63;6.47;;;7.40;99.90;;;;;;5010090;28;20965;-84
2020/12/11 11:29:23;;;;;;;10.10;6.90;;;7.50;99.90;;;;;;5030448;28;21059;-84
2020/12/11 11:31:49;;;;;;;10.47;7.03;;;7.30;99.90;;;;;;5034796;28;20531;-85
2020/12/11 11:34:15;;;;;;;10.40;7.17;;;7.40;99.90;;;;;;5034512;28;20889;-85
2020/12/11 11:36:42;;;;;;;8.23;6.30;;;7.50;99.90;;;;;;5034856;28;20846;-85
2020/12/11 11:39:08;;;;;;;11.67;7.10;;;7.20;99.90;;;;;;5034156;28;20497;-84
2020/12/11 11:41:48;;;;;;;8.67;6.60;;;7.10;99.90;;;;;;5034146;28;20445;-84
2020/12/11 11:44:39;;;;;;;8.67;6.40;;;7.20;99.90;;;;;;5034672;28;20437;-83
2020/12/11 11:47:09;;;;;;;10.60;6.50;;;7.20;99.90;;;;;;5034011;28;20487;-83
2020/12/11 11:49:52;;;;;;;8.03;5.97;;;7.00;99.90;;;;;;5035714;28;20466;-84
2020/12/11 11:55:48;;;;;;;8.40;6.40;;;6.70;99.90;;;;;;5014591;28;20486;-85
2020/12/11 11:58:15;;;;;;;9.33;6.63;;;6.70;99.90;;;;;;5038644;28;20886;-84
2020/12/11 12:00:47;;;;;;;8.73;6.37;;;6.60;99.90;;;;;;5039018;28;20428;-84
2020/12/11 12:03:13;;;;;;;12.40;8.30;;;6.60;99.90;;;;;;5036491;28;20425;-84
2020/12/11 12:05:41;;;;;;;9.10;6.90;;;6.60;99.90;;;;;;5038098;28;20535;-85
2020/12/11 12:08:08;;;;;;;9.93;7.50;;;6.40;99.90;;;;;;5038434;28;20991;-83
2020/12/11 12:10:34;;;;;;;9.77;7.33;;;6.50;99.90;;;;;;5038400;28;20536;-84
2020/12/11 12:13:02;;;;;;;7.83;6.30;;;6.40;99.90;;;;;;5028281;28;20448;-83
2020/12/11 12:15:29;;;;;;;8.90;7.30;;;6.30;99.90;;;;;;5035702;28;20429;-84
2020/12/11 12:17:59;;;;;;;9.73;7.23;;;6.10;99.90;;;;;;5037903;28;20836;-83
2020/12/11 12:20:35;;;;;;;10.13;7.57;;;6.10;99.90;;;;;;5029342;28;20462;-85
2020/12/11 12:31:18;;;;;;;10.67;7.90;;;5.80;99.90;;;;;;5031120;28;20444;-83
2020/12/11 12:44:37;;;;;;;9.03;7.00;;;5.80;99.90;;;;;;5035722;28;20518;-84
2020/12/11 12:47:04;;;;;;;11.50;7.67;;;5.70;99.90;;;;;;5035385;28;20514;-83
2020/12/11 12:49:30;;;;;;;11.20;7.40;;;5.60;99.90;;;;;;5032863;28;21010;-83
2020/12/11 12:51:57;;;;;;;13.60;8.43;;;5.60;99.90;;;;;;5031142;28;20453;-83
2020/12/11 12:54:24;;;;;;;8.93;6.93;;;5.40;99.90;;;;;;5030348;28;20493;-92
2020/12/11 12:56:53;;;;;;;8.43;6.37;;;5.40;99.90;;;;;;5036377;28;20487;-83
2020/12/11 12:59:30;;;;;;;8.67;6.40;;;5.40;99.90;;;;;;5036587;28;20499;-84
2020/12/11 13:02:12;;;;;;;10.20;6.83;;;5.40;99.90;;;;;;5034804;28;20841;-83
2020/12/11 13:04:41;;;;;;;10.90;8.07;;;5.40;99.90;;;;;;5032546;28;20482;-84
2020/12/11 13:07:07;;;;;;;10.23;7.00;;;5.40;99.90;;;;;;5029048;28;20487;-82
2020/12/11 13:09:34;;;;;;;9.37;6.93;;;5.40;99.90;;;;;;5022185;28;20458;-82
2020/12/11 13:12:01;;;;;;;13.27;7.50;;;5.50;99.90;;;;;;5033378;28;20524;-84
2020/12/11 13:14:27;;;;;;;8.90;6.90;;;5.40;99.90;;;;;;5034233;28;20530;-82
2020/12/11 13:16:53;;;;;;;8.67;6.87;;;5.40;99.90;;;;;;5029276;28;20482;-83
2020/12/11 13:19:23;;;;;;;9.10;6.90;;;5.40;99.90;;;;;;5032295;28;20452;-82
2020/12/11 13:22:04;;;;;;;9.23;6.70;;;5.50;99.90;;;;;;5016675;28;20830;-87
2020/12/11 13:27:22;;;;;;;8.50;6.70;;;5.60;99.90;;;;;;5036506;28;20522;-83
2020/12/11 13:29:52;;;;;;;7.90;6.73;;;5.60;99.90;;;;;;5036383;28;20499;-83